Darstellungsparameter: Aktuell verwendete Einstellungen:
Skalierung der Graphiken ... ?
xyx+y,   Skalierungsfaktor:      Skalierung: Modus: x, Faktor: 1
Darstellungszeitraum ... ?
Vom - - bis: - -   Zeitraum: 28.06.2019 - 30.06.2019
Min/Max/Avg-Anzeige ... ?
Zeige MMA aktuell
Zeige MMA Monat
Zeige MMA alles
Zeige --A aktuell
Zeige --A Monat
Zeige --A alles
Keine MMA-Anzeige
MMA:
Average (ber die Originaldaten)
MMA-Basis: 28.06.2019 - 30.06.2019
Quicknavigation für Darstellung... ?
Tage:      1T, 2T, 3T, 5T -1T -2T -3T -5T +1T +2T +3T +5T
Wochen: 1W, 2W, 3W -1W -2W -3W +1W +2W +3W
Monate: 1M, 3M, 6M -1M -3M -6M +1M +3M +6M
Jahre:    1J, 3J, 5J, 10J -1J -3J -5J -10J +1J +3J +5J +10J
Nutze für die Darstellung ... ?
Originaldaten oder Mittelwerte auf ...
Stundenbasis Tagesbasis Wochenbasis
Monatsbasis Jahresbasis      Datenbasis: Original-Daten
Darstellen als:
Statistik (Auto) Statistik J:M      Darstellung:
Zur Graphik,    zurück zur Übersicht aller Sensoren.
 
Tabellarische Datenbersicht: ?
 
Sensor: Nr:Datum:Temp:Abs-Feuchte:Windchill:Wind:
Aussen-T/F 1 28-06-2019 00:00:00 19.1 C 10.49 g/m*3 19.1 C 0 km/h
2 28-06-2019 00:05:00 19 C 10.43 g/m*3 19 C 0 km/h
3 28-06-2019 00:10:00 18.9 C 10.37 g/m*3 18.9 C 0 km/h
4 28-06-2019 00:15:00 18.8 C 10.63 g/m*3 18.8 C 0 km/h
5 28-06-2019 00:20:00 18.7 C 10.57 g/m*3 18.7 C 0 km/h
6 28-06-2019 00:25:00 18.6 C 10.5 g/m*3 18.6 C 0 km/h
7 28-06-2019 00:30:00 18.5 C 10.44 g/m*3 18.5 C 0 km/h
8 28-06-2019 00:35:00 18.4 C 10.38 g/m*3 18.4 C 0 km/h
9 28-06-2019 00:40:00 18.3 C 10.48 g/m*3 18.3 C 0 km/h
10 28-06-2019 00:45:00 18.2 C 10.41 g/m*3 18.2 C 0 km/h
11 28-06-2019 00:50:00 18 C 10.44 g/m*3 18 C 0 km/h
12 28-06-2019 00:55:00 17.9 C 10.54 g/m*3 17.9 C 0 km/h
13 28-06-2019 01:00:00 17.8 C 10.47 g/m*3 17.8 C 0 km/h
14 28-06-2019 01:05:00 17.7 C 10.41 g/m*3 17.7 C 0 km/h
15 28-06-2019 01:10:00 17.6 C 10.5 g/m*3 17.6 C 0 km/h
16 28-06-2019 01:15:00 17.4 C 10.37 g/m*3 17.4 C 0 km/h
17 28-06-2019 01:20:00 17.3 C 10.46 g/m*3 17.3 C 0 km/h
18 28-06-2019 01:25:00 17.2 C 10.54 g/m*3 17.2 C 0 km/h
19 28-06-2019 01:30:00 17.1 C 10.48 g/m*3 17.1 C 0 km/h
20 28-06-2019 01:35:00 17 C 10.56 g/m*3 17 C 0 km/h
21 28-06-2019 01:40:00 16.9 C 10.5 g/m*3 16.9 C 0 km/h
22 28-06-2019 01:45:00 16.8 C 10.44 g/m*3 16.8 C 0 km/h
23 28-06-2019 01:50:00 16.7 C 10.52 g/m*3 16.7 C 0 km/h
24 28-06-2019 01:55:00 16.7 C 10.52 g/m*3 16.7 C 0 km/h
25 28-06-2019 02:00:00 16.6 C 10.45 g/m*3 16.6 C 0 km/h
Sensor: Nr:Datum:Temp:Abs-Feuchte:Windchill:Wind:
Aussen-T/F 26 28-06-2019 02:05:00 16.6 C 10.59 g/m*3 16.6 C 0 km/h
27 28-06-2019 02:10:00 16.5 C 10.53 g/m*3 16.5 C 0 km/h
28 28-06-2019 02:15:00 16.4 C 10.47 g/m*3 16.4 C 0 km/h
29 28-06-2019 02:20:00 16.4 C 10.61 g/m*3 16.4 C 0 km/h
30 28-06-2019 02:25:00 16.3 C 10.68 g/m*3 16.3 C 0 km/h
31 28-06-2019 02:30:00 16.2 C 10.62 g/m*3 16.2 C 0 km/h
32 28-06-2019 02:35:00 16.2 C 10.62 g/m*3 16.2 C 0 km/h
33 28-06-2019 02:40:00 16.1 C 10.69 g/m*3 16.1 C 0 km/h
34 28-06-2019 02:45:00 16.1 C 10.69 g/m*3 16.1 C 0 km/h
35 28-06-2019 02:50:00 15.9 C 10.56 g/m*3 15.9 C 0 km/h
36 28-06-2019 02:55:00 15.9 C 10.56 g/m*3 15.9 C 0 km/h
37 28-06-2019 03:00:00 15.8 C 10.63 g/m*3 15.8 C 0 km/h
38 28-06-2019 03:05:00 15.8 C 10.63 g/m*3 15.8 C 0 km/h
39 28-06-2019 03:10:00 15.7 C 10.57 g/m*3 15.7 C 0 km/h
40 28-06-2019 03:15:00 15.7 C 10.57 g/m*3 15.7 C 0 km/h
41 28-06-2019 03:20:00 15.6 C 10.64 g/m*3 15.6 C 0 km/h
42 28-06-2019 03:25:00 15.6 C 10.64 g/m*3 15.6 C 0 km/h
43 28-06-2019 03:30:00 15.4 C 10.51 g/m*3 15.4 C 0 km/h
44 28-06-2019 03:35:00 15.4 C 10.64 g/m*3 15.4 C 0 km/h
45 28-06-2019 03:40:00 15.3 C 10.58 g/m*3 15.3 C 0 km/h
46 28-06-2019 03:45:00 15.3 C 10.58 g/m*3 15.3 C 0 km/h
47 28-06-2019 03:50:00 15.2 C 10.64 g/m*3 15.2 C 0 km/h
48 28-06-2019 03:55:00 15 C 10.51 g/m*3 15 C 0 km/h
49 28-06-2019 04:00:00 14.9 C 10.45 g/m*3 14.9 C 0 km/h
50 28-06-2019 04:05:00 14.8 C 10.51 g/m*3 14.8 C 0 km/h
Sensor: Nr:Datum:Temp:Abs-Feuchte:Windchill:Wind:
Aussen-T/F 51 28-06-2019 04:10:00 14.7 C 10.45 g/m*3 14.7 C 0 km/h
52 28-06-2019 04:15:00 14.6 C 10.39 g/m*3 14.6 C 0 km/h
53 28-06-2019 04:20:00 14.5 C 10.45 g/m*3 14.5 C 0 km/h
54 28-06-2019 04:25:00 14.4 C 10.38 g/m*3 14.4 C 0 km/h
55 28-06-2019 04:30:00 14.3 C 10.32 g/m*3 14.3 C 0 km/h
56 28-06-2019 04:35:00 14.2 C 10.38 g/m*3 14.2 C 0 km/h
57 28-06-2019 04:40:00 14.1 C 10.32 g/m*3 14.1 C 0 km/h
58 28-06-2019 04:45:00 14 C 10.37 g/m*3 14 C 0 km/h
59 28-06-2019 04:50:00 13.9 C 10.31 g/m*3 13.9 C 0 km/h
60 28-06-2019 04:55:00 13.8 C 10.25 g/m*3 13.8 C 0 km/h
61 28-06-2019 05:00:00 13.8 C 10.37 g/m*3 13.8 C 0 km/h
62 28-06-2019 05:05:00 13.7 C 10.18 g/m*3 13.7 C 0 km/h
63 28-06-2019 05:10:00 13.7 C 10.3 g/m*3 13.7 C 0 km/h
64 28-06-2019 05:15:00 13.7 C 10.3 g/m*3 13.7 C 0 km/h
65 28-06-2019 05:20:00 13.6 C 10.24 g/m*3 13.6 C 0 km/h
66 28-06-2019 05:25:00 13.5 C 10.18 g/m*3 13.5 C 0 km/h
67 28-06-2019 05:30:00 13.5 C 10.18 g/m*3 13.5 C 0 km/h
68 28-06-2019 05:35:00 13.4 C 10.23 g/m*3 13.4 C 0 km/h
69 28-06-2019 05:40:00 13.4 C 10.23 g/m*3 13.4 C 0 km/h
70 28-06-2019 05:45:00 13.3 C 10.17 g/m*3 13.3 C 0 km/h
71 28-06-2019 05:50:00 13.3 C 10.17 g/m*3 13.3 C 0 km/h
72 28-06-2019 05:55:00 13.3 C 10.28 g/m*3 13.3 C 0 km/h
73 28-06-2019 06:00:00 13.3 C 10.28 g/m*3 13.3 C 0 km/h
74 28-06-2019 06:05:00 13.3 C 10.28 g/m*3 13.3 C 0 km/h
75 28-06-2019 06:10:00 13.3 C 10.28 g/m*3 13.3 C 0 km/h
Sensor: Nr:Datum:Temp:Abs-Feuchte:Windchill:Wind:
Aussen-T/F 76 28-06-2019 06:15:00 13.3 C 10.28 g/m*3 13.3 C 0 km/h
77 28-06-2019 06:20:00 13.3 C 10.4 g/m*3 13.3 C 0 km/h
78 28-06-2019 06:25:00 13.3 C 10.4 g/m*3 13.3 C 0 km/h
79 28-06-2019 06:30:00 13.3 C 10.4 g/m*3 13.3 C 0 km/h
80 28-06-2019 06:35:00 13.4 C 10.46 g/m*3 13.4 C 0 km/h
81 28-06-2019 06:40:00 13.4 C 10.46 g/m*3 13.4 C 0 km/h
82 28-06-2019 06:45:00 13.4 C 10.46 g/m*3 13.4 C 0 km/h
83 28-06-2019 06:50:00 13.5 C 10.53 g/m*3 13.5 C 0 km/h
84 28-06-2019 06:55:00 13.5 C 10.64 g/m*3 13.5 C 0 km/h
85 28-06-2019 07:00:00 13.6 C 10.71 g/m*3 13.6 C 0 km/h
86 28-06-2019 07:05:00 13.6 C 10.71 g/m*3 13.6 C 0 km/h
87 28-06-2019 07:10:00 13.7 C 10.78 g/m*3 13.7 C 0 km/h
88 28-06-2019 07:15:00 13.7 C 10.78 g/m*3 13.7 C 0 km/h
89 28-06-2019 07:20:00 13.8 C 10.84 g/m*3 13.8 C 0 km/h
90 28-06-2019 07:25:00 13.8 C 10.72 g/m*3 13.8 C 0 km/h
91 28-06-2019 07:30:00 13.8 C 10.72 g/m*3 13.8 C 0 km/h
92 28-06-2019 07:35:00 13.9 C 10.91 g/m*3 13.9 C 0 km/h
93 28-06-2019 07:40:00 14 C 10.98 g/m*3 14 C 0 km/h
94 28-06-2019 07:45:00 14.1 C 11.04 g/m*3 14.1 C 0 km/h
95 28-06-2019 07:50:00 14.2 C 11.11 g/m*3 14.2 C 0 km/h
96 28-06-2019 07:55:00 14.2 C 11.11 g/m*3 14.2 C 0 km/h
97 28-06-2019 08:00:00 14.3 C 11.18 g/m*3 14.3 C 0 km/h
98 28-06-2019 08:05:00 14.4 C 11.13 g/m*3 14.4 C 0 km/h
99 28-06-2019 08:10:00 14.6 C 11.26 g/m*3 14.6 C 1.6 km/h
100 28-06-2019 08:15:00 14.7 C 11.21 g/m*3 14.7 C 1.6 km/h
Sensor: Nr:Datum:Temp:Abs-Feuchte:Windchill:Wind:
Aussen-T/F 101 28-06-2019 08:20:00 14.9 C 11.22 g/m*3 14.9 C 4.8 km/h
102 28-06-2019 08:25:00 15.2 C 11.16 g/m*3 15.2 C 0 km/h
103 28-06-2019 08:30:00 15.5 C 11.24 g/m*3 15.5 C 4.8 km/h
104 28-06-2019 08:35:00 15.9 C 11.1 g/m*3 15.9 C 6.4 km/h
105 28-06-2019 08:40:00 16.2 C 11.17 g/m*3 16.2 C 6.4 km/h
106 28-06-2019 08:45:00 16.3 C 11.38 g/m*3 16.3 C 0 km/h
107 28-06-2019 08:50:00 16.3 C 11.24 g/m*3 16.3 C 0 km/h
108 28-06-2019 08:55:00 16.4 C 11.31 g/m*3 16.4 C 3.2 km/h
109 28-06-2019 09:00:00 16.6 C 11.3 g/m*3 16.6 C 6.4 km/h
110 28-06-2019 09:05:00 16.9 C 11.22 g/m*3 16.9 C 6.4 km/h
111 28-06-2019 09:10:00 17.2 C 11.28 g/m*3 17.2 C 4.8 km/h
112 28-06-2019 09:15:00 17.4 C 11.26 g/m*3 17.4 C 0 km/h
113 28-06-2019 09:20:00 17.6 C 11.25 g/m*3 17.6 C 1.6 km/h
114 28-06-2019 09:25:00 17.7 C 11.16 g/m*3 17.7 C 1.6 km/h
115 28-06-2019 09:30:00 17.8 C 11.38 g/m*3 17.8 C 1.6 km/h
116 28-06-2019 09:35:00 17.9 C 11.3 g/m*3 17.9 C 1.6 km/h
117 28-06-2019 09:40:00 18.1 C 11.28 g/m*3 18.1 C 4.8 km/h
118 28-06-2019 09:45:00 18.2 C 11.5 g/m*3 18.2 C 4.8 km/h
119 28-06-2019 09:50:00 18.4 C 11.32 g/m*3 18.4 C 6.4 km/h
120 28-06-2019 09:55:00 18.6 C 11.3 g/m*3 18.6 C 4.8 km/h
121 28-06-2019 10:00:00 18.8 C 11.43 g/m*3 18.8 C 8.1 km/h
122 28-06-2019 10:05:00 18.8 C 11.27 g/m*3 18.8 C 4.8 km/h
123 28-06-2019 10:10:00 18.9 C 11.34 g/m*3 18.9 C 4.8 km/h
124 28-06-2019 10:15:00 19.1 C 11.47 g/m*3 19.1 C 3.2 km/h
125 28-06-2019 10:20:00 19.4 C 11.68 g/m*3 19.4 C 6.4 km/h
Sensor: Nr:Datum:Temp:Abs-Feuchte:Windchill:Wind:
Aussen-T/F 126 28-06-2019 10:25:00 19.7 C 11.38 g/m*3 19.7 C 4.8 km/h
127 28-06-2019 10:30:00 20.1 C 11.82 g/m*3 20.1 C 4.8 km/h
128 28-06-2019 10:35:00 20.4 C 11.5 g/m*3 20.4 C 4.8 km/h
129 28-06-2019 10:40:00 20.6 C 11.63 g/m*3 20.6 C 4.8 km/h
130 28-06-2019 10:45:00 20.6 C 11.63 g/m*3 20.6 C 4.8 km/h
131 28-06-2019 10:50:00 20.6 C 11.63 g/m*3 20.6 C 4.8 km/h
132 28-06-2019 10:55:00 20.8 C 11.41 g/m*3 20.8 C 6.4 km/h
133 28-06-2019 11:00:00 20.9 C 11.47 g/m*3 20.9 C 4.8 km/h
134 28-06-2019 11:05:00 20.9 C 11.29 g/m*3 20.9 C 4.8 km/h
135 28-06-2019 11:10:00 21.1 C 11.42 g/m*3 21.1 C 1.6 km/h
136 28-06-2019 11:15:00 21.2 C 11.12 g/m*3 21.2 C 6.4 km/h
137 28-06-2019 11:20:00 21.3 C 11.18 g/m*3 21.3 C 6.4 km/h
138 28-06-2019 11:25:00 21.5 C 11.13 g/m*3 21.5 C 3.2 km/h
139 28-06-2019 11:30:00 21.7 C 11.25 g/m*3 21.7 C 8.1 km/h
140 28-06-2019 11:35:00 21.8 C 11.51 g/m*3 21.8 C 6.4 km/h
141 28-06-2019 11:40:00 21.8 C 11.51 g/m*3 21.8 C 8.1 km/h
142 28-06-2019 11:45:00 21.8 C 11.51 g/m*3 21.8 C 6.4 km/h
143 28-06-2019 11:50:00 21.8 C 11.32 g/m*3 21.8 C 9.7 km/h
144 28-06-2019 11:55:00 21.9 C 11.58 g/m*3 21.9 C 9.7 km/h
145 28-06-2019 12:00:00 22.2 C 11.58 g/m*3 22.2 C 4.8 km/h
146 28-06-2019 12:05:00 22.3 C 11.45 g/m*3 22.3 C 8.1 km/h
147 28-06-2019 12:10:00 22.5 C 11.58 g/m*3 22.5 C 8.1 km/h
148 28-06-2019 12:15:00 22.6 C 11.65 g/m*3 22.6 C 6.4 km/h
149 28-06-2019 12:20:00 22.6 C 11.45 g/m*3 22.6 C 6.4 km/h
150 28-06-2019 12:25:00 22.7 C 11.31 g/m*3 22.7 C 4.8 km/h
Sensor: Nr:Datum:Temp:Abs-Feuchte:Windchill:Wind:
Aussen-T/F 151 28-06-2019 12:30:00 22.8 C 11.18 g/m*3 22.8 C 14.5 km/h
152 28-06-2019 12:35:00 23.1 C 11.16 g/m*3 23.1 C 9.7 km/h
153 28-06-2019 12:40:00 23.2 C 11.43 g/m*3 23.2 C 6.4 km/h
154 28-06-2019 12:45:00 23.2 C 11.23 g/m*3 23.2 C 9.7 km/h
155 28-06-2019 12:50:00 23.3 C 11.08 g/m*3 23.3 C 8.1 km/h
156 28-06-2019 12:55:00 23.6 C 10.85 g/m*3 23.6 C 9.7 km/h
157 28-06-2019 13:00:00 23.7 C 10.91 g/m*3 23.7 C 6.4 km/h
158 28-06-2019 13:05:00 23.8 C 10.97 g/m*3 23.8 C 11.3 km/h
159 28-06-2019 13:10:00 24.1 C 10.72 g/m*3 24.1 C 14.5 km/h
160 28-06-2019 13:15:00 24.2 C 10.78 g/m*3 24.2 C 6.4 km/h
161 28-06-2019 13:20:00 24.3 C 10.84 g/m*3 24.3 C 9.7 km/h
162 28-06-2019 13:25:00 24.6 C 10.8 g/m*3 24.6 C 11.3 km/h
163 28-06-2019 13:30:00 24.9 C 10.53 g/m*3 24.9 C 11.3 km/h
164 28-06-2019 13:35:00 25 C 10.36 g/m*3 25 C 8.1 km/h
165 28-06-2019 13:40:00 25.1 C 10.42 g/m*3 25.1 C 12.9 km/h
166 28-06-2019 13:45:00 25.2 C 10.71 g/m*3 25.2 C 8.1 km/h
167 28-06-2019 13:50:00 25.4 C 10.36 g/m*3 25.4 C 8.1 km/h
168 28-06-2019 13:55:00 25.7 C 10.53 g/m*3 25.7 C 9.7 km/h
169 28-06-2019 14:00:00 25.8 C 10.35 g/m*3 25.8 C 11.3 km/h
170 28-06-2019 14:05:00 25.7 C 10.29 g/m*3 25.7 C 4.8 km/h
171 28-06-2019 14:10:00 25.7 C 10.77 g/m*3 25.7 C 8.1 km/h
172 28-06-2019 14:15:00 25.9 C 10.65 g/m*3 25.9 C 12.9 km/h
173 28-06-2019 14:20:00 26.1 C 10.28 g/m*3 26.1 C 9.7 km/h
174 28-06-2019 14:25:00 26.2 C 10.83 g/m*3 26.2 C 9.7 km/h
175 28-06-2019 14:30:00 26.4 C 10.21 g/m*3 26.4 C 8.1 km/h
Sensor: Nr:Datum:Temp:Abs-Feuchte:Windchill:Wind:
Aussen-T/F 176 28-06-2019 14:35:00 26.6 C 10.82 g/m*3 26.6 C 8.1 km/h
177 28-06-2019 14:40:00 26.7 C 10.63 g/m*3 26.7 C 8.1 km/h
178 28-06-2019 14:45:00 26.9 C 10.24 g/m*3 26.9 C 8.1 km/h
179 28-06-2019 14:50:00 26.9 C 10.24 g/m*3 26.9 C 9.7 km/h
180 28-06-2019 14:55:00 26.9 C 10.49 g/m*3 26.9 C 8.1 km/h
181 28-06-2019 15:00:00 27.1 C 10.61 g/m*3 27.1 C 6.4 km/h
182 28-06-2019 15:05:00 27.3 C 11.51 g/m*3 27.3 C 4.8 km/h
183 28-06-2019 15:10:00 27.7 C 10.97 g/m*3 27.7 C 8.1 km/h
184 28-06-2019 15:15:00 27.8 C 9.95 g/m*3 27.8 C 12.9 km/h
185 28-06-2019 15:20:00 27.9 C 10.28 g/m*3 27.9 C 11.3 km/h
186 28-06-2019 15:25:00 28 C 10.61 g/m*3 28 C 11.3 km/h
187 28-06-2019 15:30:00 28.2 C 10.72 g/m*3 28.2 C 6.4 km/h
188 28-06-2019 15:35:00 28.4 C 10.28 g/m*3 28.4 C 8.1 km/h
189 28-06-2019 15:40:00 28.7 C 10.74 g/m*3 28.7 C 6.4 km/h
190 28-06-2019 15:45:00 28.9 C 10.57 g/m*3 28.9 C 11.3 km/h
191 28-06-2019 15:50:00 29.2 C 10.74 g/m*3 29.2 C 4.8 km/h
192 28-06-2019 15:55:00 29.5 C 10.33 g/m*3 29.5 C 4.8 km/h
193 28-06-2019 16:00:00 29.7 C 10.44 g/m*3 29.7 C 12.9 km/h
194 28-06-2019 16:05:00 29.9 C 10.25 g/m*3 29.9 C 6.4 km/h
195 28-06-2019 16:10:00 30.1 C 10.37 g/m*3 30.1 C 8.1 km/h
196 28-06-2019 16:15:00 30.1 C 10.06 g/m*3 30.1 C 9.7 km/h
197 28-06-2019 16:20:00 30.2 C 10.12 g/m*3 30.2 C 6.4 km/h
198 28-06-2019 16:25:00 30.3 C 10.48 g/m*3 30.3 C 8.1 km/h
199 28-06-2019 16:30:00 30.4 C 10.54 g/m*3 30.4 C 11.3 km/h
200 28-06-2019 16:35:00 30.4 C 10.54 g/m*3 30.4 C 6.4 km/h
Sensor: Nr:Datum:Temp:Abs-Feuchte:Windchill:Wind:
Aussen-T/F 201 28-06-2019 16:40:00 30.4 C 9.92 g/m*3 30.4 C 6.4 km/h
202 28-06-2019 16:45:00 30.3 C 10.48 g/m*3 30.3 C 11.3 km/h
203 28-06-2019 16:50:00 30.4 C 10.54 g/m*3 30.4 C 8.1 km/h
204 28-06-2019 16:55:00 30.8 C 10.13 g/m*3 30.8 C 11.3 km/h
205 28-06-2019 17:00:00 30.8 C 9.81 g/m*3 30.8 C 9.7 km/h
206 28-06-2019 17:05:00 30.6 C 10.34 g/m*3 30.6 C 6.4 km/h
207 28-06-2019 17:10:00 30.8 C 9.81 g/m*3 30.8 C 6.4 km/h
208 28-06-2019 17:15:00 31.1 C 10.3 g/m*3 31.1 C 4.8 km/h
209 28-06-2019 17:20:00 31.2 C 9.38 g/m*3 31.2 C 20.9 km/h
210 28-06-2019 17:25:00 31.1 C 9.65 g/m*3 31.1 C 6.4 km/h
211 28-06-2019 17:30:00 31.2 C 9.06 g/m*3 31.2 C 9.7 km/h
212 28-06-2019 17:35:00 31.2 C 9.38 g/m*3 31.2 C 9.7 km/h
213 28-06-2019 17:40:00 31.1 C 8.69 g/m*3 31.1 C 9.7 km/h
214 28-06-2019 17:45:00 31.3 C 9.43 g/m*3 31.3 C 4.8 km/h
215 28-06-2019 17:50:00 31.5 C 9.53 g/m*3 31.5 C 6.4 km/h
216 28-06-2019 17:55:00 31.7 C 9.63 g/m*3 31.7 C 8.1 km/h
217 28-06-2019 18:00:00 31.7 C 8.97 g/m*3 31.7 C 11.3 km/h
218 28-06-2019 18:05:00 31.6 C 9.25 g/m*3 31.6 C 8.1 km/h
219 28-06-2019 18:10:00 31.6 C 8.92 g/m*3 31.6 C 4.8 km/h
220 28-06-2019 18:15:00 31.7 C 8.97 g/m*3 31.7 C 8.1 km/h
221 28-06-2019 18:20:00 31.7 C 8.97 g/m*3 31.7 C 9.7 km/h
222 28-06-2019 18:25:00 31.7 C 9.3 g/m*3 31.7 C 6.4 km/h
223 28-06-2019 18:30:00 31.6 C 9.25 g/m*3 31.6 C 8.1 km/h
224 28-06-2019 18:35:00 31.6 C 9.58 g/m*3 31.6 C 6.4 km/h
225 28-06-2019 18:40:00 31.7 C 9.3 g/m*3 31.7 C 11.3 km/h
Sensor: Nr:Datum:Temp:Abs-Feuchte:Windchill:Wind:
Aussen-T/F 226 28-06-2019 18:45:00 31.7 C 9.63 g/m*3 31.7 C 6.4 km/h
227 28-06-2019 18:50:00 31.7 C 9.63 g/m*3 31.7 C 6.4 km/h
228 28-06-2019 18:55:00 31.7 C 9.63 g/m*3 31.7 C 4.8 km/h
229 28-06-2019 19:00:00 31.5 C 9.2 g/m*3 31.5 C 8.1 km/h
230 28-06-2019 19:05:00 31.3 C 9.43 g/m*3 31.3 C 6.4 km/h
231 28-06-2019 19:10:00 31.4 C 9.48 g/m*3 31.4 C 6.4 km/h
232 28-06-2019 19:15:00 31.6 C 9.91 g/m*3 31.6 C 4.8 km/h
233 28-06-2019 19:20:00 31.6 C 9.91 g/m*3 31.6 C 6.4 km/h
234 28-06-2019 19:25:00 31.6 C 9.91 g/m*3 31.6 C 4.8 km/h
235 28-06-2019 19:30:00 31.4 C 9.81 g/m*3 31.4 C 8.1 km/h
236 28-06-2019 19:35:00 31.2 C 9.7 g/m*3 31.2 C 6.4 km/h
237 28-06-2019 19:40:00 31 C 9.6 g/m*3 31 C 4.8 km/h
238 28-06-2019 19:45:00 30.9 C 9.87 g/m*3 30.9 C 4.8 km/h
239 28-06-2019 19:50:00 30.6 C 10.02 g/m*3 30.6 C 8.1 km/h
240 28-06-2019 19:55:00 30.3 C 9.86 g/m*3 30.3 C 9.7 km/h
241 28-06-2019 20:00:00 30.1 C 10.06 g/m*3 30.1 C 11.3 km/h
242 28-06-2019 20:05:00 29.8 C 9.9 g/m*3 29.8 C 9.7 km/h
243 28-06-2019 20:10:00 29.7 C 10.14 g/m*3 29.7 C 9.7 km/h
244 28-06-2019 20:15:00 29.6 C 10.09 g/m*3 29.6 C 8.1 km/h
245 28-06-2019 20:20:00 29.6 C 10.98 g/m*3 29.6 C 3.2 km/h
246 28-06-2019 20:25:00 29.6 C 11.87 g/m*3 29.6 C 0 km/h
247 28-06-2019 20:30:00 29.5 C 10.63 g/m*3 29.5 C 3.2 km/h
248 28-06-2019 20:35:00 29.4 C 11.15 g/m*3 29.4 C 1.6 km/h
249 28-06-2019 20:40:00 29.3 C 11.09 g/m*3 29.3 C 1.6 km/h
250 28-06-2019 20:45:00 29.3 C 11.97 g/m*3 29.3 C 0 km/h
Sensor: Nr:Datum:Temp:Abs-Feuchte:Windchill:Wind:
Aussen-T/F 251 28-06-2019 20:50:00 29.1 C 10.4 g/m*3 29.1 C 1.6 km/h
252 28-06-2019 20:55:00 28.9 C 12 g/m*3 28.9 C 1.6 km/h
253 28-06-2019 21:00:00 28.6 C 12.08 g/m*3 28.6 C 0 km/h
254 28-06-2019 21:05:00 28.1 C 12.3 g/m*3 28.1 C 0 km/h
255 28-06-2019 21:10:00 27.6 C 11.71 g/m*3 27.6 C 0 km/h
256 28-06-2019 21:15:00 26.9 C 11.52 g/m*3 26.9 C 0 km/h
257 28-06-2019 21:20:00 26.3 C 11.64 g/m*3 26.3 C 0 km/h
258 28-06-2019 21:25:00 25.7 C 11.73 g/m*3 25.7 C 0 km/h
259 28-06-2019 21:30:00 25.1 C 11.34 g/m*3 25.1 C 1.6 km/h
260 28-06-2019 21:35:00 24.6 C 11.25 g/m*3 24.6 C 1.6 km/h
261 28-06-2019 21:40:00 24.2 C 11.22 g/m*3 24.2 C 1.6 km/h
262 28-06-2019 21:45:00 23.8 C 10.97 g/m*3 23.8 C 1.6 km/h
263 28-06-2019 21:50:00 23.4 C 10.93 g/m*3 23.4 C 1.6 km/h
264 28-06-2019 21:55:00 23.1 C 10.75 g/m*3 23.1 C 1.6 km/h
265 28-06-2019 22:00:00 22.8 C 10.57 g/m*3 22.8 C 1.6 km/h
266 28-06-2019 22:05:00 22.6 C 10.25 g/m*3 22.6 C 1.6 km/h
267 28-06-2019 22:10:00 22.4 C 10.13 g/m*3 22.4 C 0 km/h
268 28-06-2019 22:15:00 22.2 C 10.21 g/m*3 22.2 C 0 km/h
269 28-06-2019 22:20:00 21.9 C 10.03 g/m*3 21.9 C 0 km/h
270 28-06-2019 22:25:00 21.8 C 10.36 g/m*3 21.8 C 1.6 km/h
271 28-06-2019 22:30:00 21.5 C 10.37 g/m*3 21.5 C 0 km/h
272 28-06-2019 22:35:00 21.3 C 10.25 g/m*3 21.3 C 0 km/h
273 28-06-2019 22:40:00 21 C 10.44 g/m*3 21 C 0 km/h
274 28-06-2019 22:45:00 20.7 C 10.44 g/m*3 20.7 C 0 km/h
275 28-06-2019 22:50:00 20.5 C 10.5 g/m*3 20.5 C 0 km/h
Sensor: Nr:Datum:Temp:Abs-Feuchte:Windchill:Wind:
Aussen-T/F 276 28-06-2019 22:55:00 20.3 C 10.55 g/m*3 20.3 C 0 km/h
277 28-06-2019 23:00:00 20.2 C 10.67 g/m*3 20.2 C 0 km/h
278 28-06-2019 23:05:00 19.9 C 10.48 g/m*3 19.9 C 0 km/h
279 28-06-2019 23:10:00 19.7 C 10.53 g/m*3 19.7 C 0 km/h
280 28-06-2019 23:15:00 19.6 C 10.47 g/m*3 19.6 C 0 km/h
281 28-06-2019 23:20:00 19.4 C 10.51 g/m*3 19.4 C 0 km/h
282 28-06-2019 23:25:00 19.3 C 10.62 g/m*3 19.3 C 0 km/h
283 28-06-2019 23:30:00 19.1 C 10.49 g/m*3 19.1 C 0 km/h
284 28-06-2019 23:35:00 19 C 10.59 g/m*3 19 C 0 km/h
285 28-06-2019 23:40:00 18.9 C 10.53 g/m*3 18.9 C 0 km/h
286 28-06-2019 23:45:00 18.8 C 10.47 g/m*3 18.8 C 0 km/h
287 28-06-2019 23:50:00 18.7 C 10.57 g/m*3 18.7 C 0 km/h
288 28-06-2019 23:55:00 18.7 C 10.57 g/m*3 18.7 C 0 km/h
289 29-06-2019 00:00:00 18.7 C 10.57 g/m*3 18.7 C 1.6 km/h
290 29-06-2019 00:05:00 18.6 C 10.35 g/m*3 18.6 C 0 km/h
291 29-06-2019 00:10:00 18.6 C 10.35 g/m*3 18.6 C 1.6 km/h
292 29-06-2019 00:15:00 18.6 C 10.35 g/m*3 18.6 C 0 km/h
293 29-06-2019 00:20:00 18.5 C 10.44 g/m*3 18.5 C 0 km/h
294 29-06-2019 00:25:00 18.4 C 10.38 g/m*3 18.4 C 0 km/h
295 29-06-2019 00:30:00 18.4 C 10.38 g/m*3 18.4 C 0 km/h
296 29-06-2019 00:35:00 18.3 C 10.32 g/m*3 18.3 C 0 km/h
297 29-06-2019 00:40:00 18.3 C 10.32 g/m*3 18.3 C 0 km/h
298 29-06-2019 00:45:00 18.2 C 10.26 g/m*3 18.2 C 0 km/h
299 29-06-2019 00:50:00 18.2 C 10.41 g/m*3 18.2 C 1.6 km/h
300 29-06-2019 00:55:00 18.1 C 10.35 g/m*3 18.1 C 0 km/h
Sensor: Nr:Datum:Temp:Abs-Feuchte:Windchill:Wind:
Aussen-T/F 301 29-06-2019 01:00:00 18.1 C 10.35 g/m*3 18.1 C 3.2 km/h
302 29-06-2019 01:05:00 18 C 10.29 g/m*3 18 C 0 km/h
303 29-06-2019 01:10:00 17.9 C 10.38 g/m*3 17.9 C 0 km/h
304 29-06-2019 01:15:00 17.9 C 10.38 g/m*3 17.9 C 0 km/h
305 29-06-2019 01:20:00 17.9 C 10.38 g/m*3 17.9 C 3.2 km/h
306 29-06-2019 01:25:00 17.8 C 10.47 g/m*3 17.8 C 0 km/h
307 29-06-2019 01:30:00 17.8 C 10.47 g/m*3 17.8 C 0 km/h
308 29-06-2019 01:35:00 17.8 C 10.32 g/m*3 17.8 C 0 km/h
309 29-06-2019 01:40:00 17.8 C 10.32 g/m*3 17.8 C 0 km/h
310 29-06-2019 01:45:00 17.7 C 10.26 g/m*3 17.7 C 0 km/h
311 29-06-2019 01:50:00 17.7 C 10.26 g/m*3 17.7 C 0 km/h
312 29-06-2019 01:55:00 17.6 C 10.35 g/m*3 17.6 C 0 km/h
313 29-06-2019 02:00:00 17.6 C 10.35 g/m*3 17.6 C 0 km/h
314 29-06-2019 02:05:00 17.4 C 10.23 g/m*3 17.4 C 0 km/h
315 29-06-2019 02:10:00 17.3 C 10.16 g/m*3 17.3 C 0 km/h
316 29-06-2019 02:15:00 17.3 C 10.31 g/m*3 17.3 C 0 km/h
317 29-06-2019 02:20:00 17.2 C 10.4 g/m*3 17.2 C 0 km/h
318 29-06-2019 02:25:00 17.1 C 10.34 g/m*3 17.1 C 0 km/h
319 29-06-2019 02:30:00 17 C 10.27 g/m*3 17 C 0 km/h
320 29-06-2019 02:35:00 16.9 C 10.21 g/m*3 16.9 C 0 km/h
321 29-06-2019 02:40:00 16.9 C 10.36 g/m*3 16.9 C 1.6 km/h
322 29-06-2019 02:45:00 16.8 C 10.29 g/m*3 16.8 C 0 km/h
323 29-06-2019 02:50:00 16.8 C 10.44 g/m*3 16.8 C 0 km/h
324 29-06-2019 02:55:00 16.8 C 10.44 g/m*3 16.8 C 0 km/h
325 29-06-2019 03:00:00 16.7 C 10.37 g/m*3 16.7 C 0 km/h
Sensor: Nr:Datum:Temp:Abs-Feuchte:Windchill:Wind:
Aussen-T/F 326 29-06-2019 03:05:00 16.7 C 10.37 g/m*3 16.7 C 0 km/h
327 29-06-2019 03:10:00 16.6 C 10.45 g/m*3 16.6 C 0 km/h
328 29-06-2019 03:15:00 16.6 C 10.45 g/m*3 16.6 C 0 km/h
329 29-06-2019 03:20:00 16.5 C 10.39 g/m*3 16.5 C 0 km/h
330 29-06-2019 03:25:00 16.4 C 10.33 g/m*3 16.4 C 0 km/h
331 29-06-2019 03:30:00 16.4 C 10.33 g/m*3 16.4 C 0 km/h
332 29-06-2019 03:35:00 16.3 C 10.41 g/m*3 16.3 C 0 km/h
333 29-06-2019 03:40:00 16.3 C 10.41 g/m*3 16.3 C 0 km/h
334 29-06-2019 03:45:00 16.2 C 10.34 g/m*3 16.2 C 0 km/h
335 29-06-2019 03:50:00 16.1 C 10.28 g/m*3 16.1 C 0 km/h
336 29-06-2019 03:55:00 15.9 C 10.29 g/m*3 15.9 C 0 km/h
337 29-06-2019 04:00:00 15.8 C 10.23 g/m*3 15.8 C 0 km/h
338 29-06-2019 04:05:00 15.7 C 10.3 g/m*3 15.7 C 0 km/h
339 29-06-2019 04:10:00 15.6 C 10.24 g/m*3 15.6 C 0 km/h
340 29-06-2019 04:15:00 15.4 C 10.25 g/m*3 15.4 C 0 km/h
341 29-06-2019 04:20:00 15.3 C 10.19 g/m*3 15.3 C 0 km/h
342 29-06-2019 04:25:00 15.2 C 10.12 g/m*3 15.2 C 0 km/h
343 29-06-2019 04:30:00 15.1 C 10.19 g/m*3 15.1 C 0 km/h
344 29-06-2019 04:35:00 15 C 10.13 g/m*3 15 C 0 km/h
345 29-06-2019 04:40:00 14.9 C 10.2 g/m*3 14.9 C 0 km/h
346 29-06-2019 04:45:00 14.8 C 10.13 g/m*3 14.8 C 0 km/h
347 29-06-2019 04:50:00 14.7 C 10.07 g/m*3 14.7 C 0 km/h
348 29-06-2019 04:55:00 14.6 C 10.14 g/m*3 14.6 C 0 km/h
349 29-06-2019 05:00:00 14.5 C 10.07 g/m*3 14.5 C 0 km/h
350 29-06-2019 05:05:00 14.4 C 10.01 g/m*3 14.4 C 0 km/h
Sensor: Nr:Datum:Temp:Abs-Feuchte:Windchill:Wind:
Aussen-T/F 351 29-06-2019 05:10:00 14.3 C 10.07 g/m*3 14.3 C 0 km/h
352 29-06-2019 05:15:00 14.3 C 10.07 g/m*3 14.3 C 0 km/h
353 29-06-2019 05:20:00 14.2 C 10.01 g/m*3 14.2 C 0 km/h
354 29-06-2019 05:25:00 14.1 C 10.07 g/m*3 14.1 C 0 km/h
355 29-06-2019 05:30:00 14 C 10.01 g/m*3 14 C 0 km/h
356 29-06-2019 05:35:00 13.9 C 9.95 g/m*3 13.9 C 0 km/h
357 29-06-2019 05:40:00 13.9 C 10.07 g/m*3 13.9 C 0 km/h
358 29-06-2019 05:45:00 13.9 C 10.07 g/m*3 13.9 C 0 km/h
359 29-06-2019 05:50:00 13.8 C 10.01 g/m*3 13.8 C 0 km/h
360 29-06-2019 05:55:00 13.8 C 10.01 g/m*3 13.8 C 0 km/h
361 29-06-2019 06:00:00 13.8 C 10.01 g/m*3 13.8 C 0 km/h
362 29-06-2019 06:05:00 13.7 C 9.95 g/m*3 13.7 C 0 km/h
363 29-06-2019 06:10:00 13.7 C 9.95 g/m*3 13.7 C 0 km/h
364 29-06-2019 06:15:00 13.7 C 10.07 g/m*3 13.7 C 0 km/h
365 29-06-2019 06:20:00 13.7 C 10.18 g/m*3 13.7 C 0 km/h
366 29-06-2019 06:25:00 13.7 C 10.18 g/m*3 13.7 C 0 km/h
367 29-06-2019 06:30:00 13.7 C 10.18 g/m*3 13.7 C 0 km/h
368 29-06-2019 06:35:00 13.7 C 10.18 g/m*3 13.7 C 0 km/h
369 29-06-2019 06:40:00 13.7 C 10.18 g/m*3 13.7 C 0 km/h
370 29-06-2019 06:45:00 13.7 C 10.18 g/m*3 13.7 C 0 km/h
371 29-06-2019 06:50:00 13.7 C 10.18 g/m*3 13.7 C 0 km/h
372 29-06-2019 06:55:00 13.7 C 10.3 g/m*3 13.7 C 0 km/h
373 29-06-2019 07:00:00 13.8 C 10.37 g/m*3 13.8 C 0 km/h
374 29-06-2019 07:05:00 13.8 C 10.37 g/m*3 13.8 C 0 km/h
375 29-06-2019 07:10:00 13.8 C 10.37 g/m*3 13.8 C 0 km/h
Sensor: Nr:Datum:Temp:Abs-Feuchte:Windchill:Wind:
Aussen-T/F 376 29-06-2019 07:15:00 13.9 C 10.43 g/m*3 13.9 C 0 km/h
377 29-06-2019 07:20:00 13.9 C 10.55 g/m*3 13.9 C 0 km/h
378 29-06-2019 07:25:00 14.1 C 10.68 g/m*3 14.1 C 0 km/h
379 29-06-2019 07:30:00 14.1 C 10.68 g/m*3 14.1 C 0 km/h
380 29-06-2019 07:35:00 14.2 C 10.75 g/m*3 14.2 C 0 km/h
381 29-06-2019 07:40:00 14.3 C 10.81 g/m*3 14.3 C 0 km/h
382 29-06-2019 07:45:00 14.3 C 10.81 g/m*3 14.3 C 0 km/h
383 29-06-2019 07:50:00 14.3 C 10.81 g/m*3 14.3 C 0 km/h
384 29-06-2019 07:55:00 14.4 C 10.88 g/m*3 14.4 C 0 km/h
385 29-06-2019 08:00:00 14.5 C 10.94 g/m*3 14.5 C 0 km/h
386 29-06-2019 08:05:00 14.6 C 10.89 g/m*3 14.6 C 0 km/h
387 29-06-2019 08:10:00 14.7 C 11.08 g/m*3 14.7 C 0 km/h
388 29-06-2019 08:15:00 14.8 C 11.15 g/m*3 14.8 C 0 km/h
389 29-06-2019 08:20:00 14.9 C 11.22 g/m*3 14.9 C 0 km/h
390 29-06-2019 08:25:00 15.1 C 11.22 g/m*3 15.1 C 0 km/h
391 29-06-2019 08:30:00 15.3 C 11.36 g/m*3 15.3 C 0 km/h
392 29-06-2019 08:35:00 15.5 C 11.5 g/m*3 15.5 C 0 km/h
393 29-06-2019 08:40:00 15.7 C 11.64 g/m*3 15.7 C 0 km/h
394 29-06-2019 08:45:00 15.8 C 11.58 g/m*3 15.8 C 0 km/h
395 29-06-2019 08:50:00 16 C 11.58 g/m*3 16 C 0 km/h
396 29-06-2019 08:55:00 16.3 C 11.79 g/m*3 16.3 C 0 km/h
397 29-06-2019 09:00:00 16.5 C 11.8 g/m*3 16.5 C 1.6 km/h
398 29-06-2019 09:05:00 16.7 C 11.8 g/m*3 16.7 C 1.6 km/h
399 29-06-2019 09:10:00 17.2 C 11.72 g/m*3 17.2 C 6.4 km/h
400 29-06-2019 09:15:00 17.7 C 11.62 g/m*3 17.7 C 6.4 km/h
Sensor: Nr:Datum:Temp:Abs-Feuchte:Windchill:Wind:
Aussen-T/F 401 29-06-2019 09:20:00 18.7 C 11.69 g/m*3 18.7 C 6.4 km/h
402 29-06-2019 09:25:00 19.3 C 11.94 g/m*3 19.3 C 3.2 km/h
403 29-06-2019 09:30:00 19.6 C 11.65 g/m*3 19.6 C 4.8 km/h
404 29-06-2019 09:35:00 20.1 C 11.82 g/m*3 20.1 C 8.1 km/h
405 29-06-2019 09:40:00 20.7 C 11.7 g/m*3 20.7 C 9.7 km/h
406 29-06-2019 09:45:00 21 C 11.72 g/m*3 21 C 6.4 km/h
407 29-06-2019 09:50:00 21.3 C 11.74 g/m*3 21.3 C 9.7 km/h
408 29-06-2019 09:55:00 21.6 C 11.38 g/m*3 21.6 C 9.7 km/h
409 29-06-2019 10:00:00 21.9 C 11.58 g/m*3 21.9 C 9.7 km/h
410 29-06-2019 10:05:00 22.2 C 11.58 g/m*3 22.2 C 8.1 km/h
411 29-06-2019 10:10:00 22.4 C 11.52 g/m*3 22.4 C 8.1 km/h
412 29-06-2019 10:15:00 22.8 C 11.79 g/m*3 22.8 C 8.1 km/h
413 29-06-2019 10:20:00 23.1 C 11.37 g/m*3 23.1 C 6.4 km/h
414 29-06-2019 10:25:00 23.4 C 11.35 g/m*3 23.4 C 14.5 km/h
415 29-06-2019 10:30:00 23.7 C 11.55 g/m*3 23.7 C 14.5 km/h
416 29-06-2019 10:35:00 23.9 C 11.68 g/m*3 23.9 C 6.4 km/h
417 29-06-2019 10:40:00 24.2 C 11.44 g/m*3 24.2 C 11.3 km/h
418 29-06-2019 10:45:00 24.6 C 12.38 g/m*3 24.6 C 6.4 km/h
419 29-06-2019 10:50:00 24.8 C 11.84 g/m*3 24.8 C 6.4 km/h
420 29-06-2019 10:55:00 24.9 C 11.45 g/m*3 24.9 C 8.1 km/h
421 29-06-2019 11:00:00 24.9 C 11.45 g/m*3 24.9 C 6.4 km/h
422 29-06-2019 11:05:00 25.1 C 11.34 g/m*3 25.1 C 9.7 km/h
423 29-06-2019 11:10:00 25.3 C 11.71 g/m*3 25.3 C 6.4 km/h
424 29-06-2019 11:15:00 25.4 C 11.3 g/m*3 25.4 C 9.7 km/h
425 29-06-2019 11:20:00 25.7 C 11.73 g/m*3 25.7 C 8.1 km/h
Sensor: Nr:Datum:Temp:Abs-Feuchte:Windchill:Wind:
Aussen-T/F 426 29-06-2019 11:25:00 25.8 C 11.56 g/m*3 25.8 C 8.1 km/h
427 29-06-2019 11:30:00 25.9 C 11.38 g/m*3 25.9 C 9.7 km/h
428 29-06-2019 11:35:00 26 C 11.44 g/m*3 26 C 11.3 km/h
429 29-06-2019 11:40:00 26.2 C 11.57 g/m*3 26.2 C 6.4 km/h
430 29-06-2019 11:45:00 26.3 C 11.64 g/m*3 26.3 C 6.4 km/h
431 29-06-2019 11:50:00 26.3 C 11.64 g/m*3 26.3 C 8.1 km/h
432 29-06-2019 11:55:00 26.4 C 11.7 g/m*3 26.4 C 4.8 km/h
433 29-06-2019 12:00:00 26.5 C 11.77 g/m*3 26.5 C 8.1 km/h
434 29-06-2019 12:05:00 26.6 C 11.58 g/m*3 26.6 C 9.7 km/h
435 29-06-2019 12:10:00 26.8 C 11.71 g/m*3 26.8 C 9.7 km/h
436 29-06-2019 12:15:00 26.9 C 11.77 g/m*3 26.9 C 6.4 km/h
437 29-06-2019 12:20:00 27.1 C 11.9 g/m*3 27.1 C 9.7 km/h
438 29-06-2019 12:25:00 27.4 C 11.84 g/m*3 27.4 C 12.9 km/h
439 29-06-2019 12:30:00 27.6 C 11.71 g/m*3 27.6 C 12.9 km/h
440 29-06-2019 12:35:00 27.7 C 11.77 g/m*3 27.7 C 12.9 km/h
441 29-06-2019 12:40:00 27.9 C 11.9 g/m*3 27.9 C 12.9 km/h
442 29-06-2019 12:45:00 28.1 C 11.48 g/m*3 28.1 C 14.5 km/h
443 29-06-2019 12:50:00 28.2 C 11.82 g/m*3 28.2 C 11.3 km/h
444 29-06-2019 12:55:00 28.2 C 11.55 g/m*3 28.2 C 9.7 km/h
445 29-06-2019 13:00:00 28.3 C 11.33 g/m*3 28.3 C 14.5 km/h
446 29-06-2019 13:05:00 28.4 C 11.4 g/m*3 28.4 C 11.3 km/h
447 29-06-2019 13:10:00 28.6 C 11.24 g/m*3 28.6 C 14.5 km/h
448 29-06-2019 13:15:00 28.7 C 10.46 g/m*3 28.7 C 9.7 km/h
449 29-06-2019 13:20:00 28.8 C 10.8 g/m*3 28.8 C 11.3 km/h
450 29-06-2019 13:25:00 29.2 C 9.87 g/m*3 29.2 C 12.9 km/h
Sensor: Nr:Datum:Temp:Abs-Feuchte:Windchill:Wind:
Aussen-T/F 451 29-06-2019 13:30:00 29.3 C 9.63 g/m*3 29.3 C 14.5 km/h
452 29-06-2019 13:35:00 29.5 C 9.74 g/m*3 29.5 C 8.1 km/h
453 29-06-2019 13:40:00 29.6 C 9.79 g/m*3 29.6 C 9.7 km/h
454 29-06-2019 13:45:00 29.6 C 9.5 g/m*3 29.6 C 6.4 km/h
455 29-06-2019 13:50:00 29.6 C 9.5 g/m*3 29.6 C 14.5 km/h
456 29-06-2019 13:55:00 29.8 C 9.3 g/m*3 29.8 C 12.9 km/h
457 29-06-2019 14:00:00 30.1 C 9.15 g/m*3 30.1 C 11.3 km/h
458 29-06-2019 14:05:00 30.1 C 9.76 g/m*3 30.1 C 9.7 km/h
459 29-06-2019 14:10:00 30.1 C 9.45 g/m*3 30.1 C 6.4 km/h
460 29-06-2019 14:15:00 30.3 C 9.86 g/m*3 30.3 C 6.4 km/h
461 29-06-2019 14:20:00 30.3 C 9.55 g/m*3 30.3 C 6.4 km/h
462 29-06-2019 14:25:00 30.4 C 9.3 g/m*3 30.4 C 4.8 km/h
463 29-06-2019 14:30:00 30.4 C 9.92 g/m*3 30.4 C 11.3 km/h
464 29-06-2019 14:35:00 30.6 C 10.02 g/m*3 30.6 C 12.9 km/h
465 29-06-2019 14:40:00 30.8 C 9.5 g/m*3 30.8 C 9.7 km/h
466 29-06-2019 14:45:00 31.1 C 9.33 g/m*3 31.1 C 19.3 km/h
467 29-06-2019 14:50:00 31.3 C 9.43 g/m*3 31.3 C 17.7 km/h
468 29-06-2019 14:55:00 31.5 C 9.2 g/m*3 31.5 C 17.7 km/h
469 29-06-2019 15:00:00 31.6 C 9.25 g/m*3 31.6 C 16.1 km/h
470 29-06-2019 15:05:00 31.7 C 8.97 g/m*3 31.7 C 9.7 km/h
471 29-06-2019 15:10:00 31.7 C 8.97 g/m*3 31.7 C 8.1 km/h
472 29-06-2019 15:15:00 31.9 C 9.07 g/m*3 31.9 C 6.4 km/h
473 29-06-2019 15:20:00 32.2 C 9.21 g/m*3 32.2 C 11.3 km/h
474 29-06-2019 15:25:00 32.3 C 9.26 g/m*3 32.3 C 11.3 km/h
475 29-06-2019 15:30:00 32.5 C 9.36 g/m*3 32.5 C 14.5 km/h
Sensor: Nr:Datum:Temp:Abs-Feuchte:Windchill:Wind:
Aussen-T/F 476 29-06-2019 15:35:00 33 C 9.97 g/m*3 33 C 9.7 km/h
477 29-06-2019 15:40:00 33.4 C 9.45 g/m*3 33.4 C 12.9 km/h
478 29-06-2019 15:45:00 33.7 C 9.6 g/m*3 33.7 C 6.4 km/h
479 29-06-2019 15:50:00 33.8 C 8.91 g/m*3 33.8 C 11.3 km/h
480 29-06-2019 15:55:00 33.8 C 8.91 g/m*3 33.8 C 11.3 km/h
481 29-06-2019 16:00:00 33.9 C 8.58 g/m*3 33.9 C 6.4 km/h
482 29-06-2019 16:05:00 34.1 C 9.05 g/m*3 34.1 C 16.1 km/h
483 29-06-2019 16:10:00 33.8 C 9.28 g/m*3 33.8 C 12.9 km/h
484 29-06-2019 16:15:00 34 C 8.63 g/m*3 34 C 12.9 km/h
485 29-06-2019 16:20:00 34.1 C 8.68 g/m*3 34.1 C 11.3 km/h
486 29-06-2019 16:25:00 34.3 C 9.15 g/m*3 34.3 C 11.3 km/h
487 29-06-2019 16:30:00 34.4 C 8.81 g/m*3 34.4 C 12.9 km/h
488 29-06-2019 16:35:00 34.5 C 9.24 g/m*3 34.5 C 11.3 km/h
489 29-06-2019 16:40:00 34.4 C 8.81 g/m*3 34.4 C 16.1 km/h
490 29-06-2019 16:45:00 34.4 C 9.2 g/m*3 34.4 C 11.3 km/h
491 29-06-2019 16:50:00 34.6 C 8.52 g/m*3 34.6 C 12.9 km/h
492 29-06-2019 16:55:00 34.4 C 9.2 g/m*3 34.4 C 9.7 km/h
493 29-06-2019 17:00:00 34.7 C 8.95 g/m*3 34.7 C 11.3 km/h
494 29-06-2019 17:05:00 34.5 C 8.09 g/m*3 34.5 C 14.5 km/h
495 29-06-2019 17:10:00 34.7 C 8.95 g/m*3 34.7 C 9.7 km/h
496 29-06-2019 17:15:00 34.9 C 9.05 g/m*3 34.9 C 9.7 km/h
497 29-06-2019 17:20:00 35.2 C 8.79 g/m*3 35.2 C 6.4 km/h
498 29-06-2019 17:25:00 35.4 C 9.28 g/m*3 35.4 C 8.1 km/h
499 29-06-2019 17:30:00 35.7 C 9.43 g/m*3 35.7 C 1.6 km/h
500 29-06-2019 17:35:00 35.8 C 9.07 g/m*3 35.8 C 6.4 km/h
Sensor: Nr:Datum:Temp:Abs-Feuchte:Windchill:Wind:
Aussen-T/F 501 29-06-2019 17:40:00 35.8 C 8.65 g/m*3 35.8 C 4.8 km/h
502 29-06-2019 17:45:00 35.7 C 9.02 g/m*3 35.7 C 8.1 km/h
503 29-06-2019 17:50:00 35.7 C 8.61 g/m*3 35.7 C 6.4 km/h
504 29-06-2019 17:55:00 35.8 C 9.48 g/m*3 35.8 C 6.4 km/h
505 29-06-2019 18:00:00 35.8 C 9.48 g/m*3 35.8 C 4.8 km/h
506 29-06-2019 18:05:00 36 C 8.74 g/m*3 36 C 6.4 km/h
507 29-06-2019 18:10:00 36.3 C 9.3 g/m*3 36.3 C 6.4 km/h
508 29-06-2019 18:15:00 36 C 8.74 g/m*3 36 C 9.7 km/h
509 29-06-2019 18:20:00 35.6 C 8.97 g/m*3 35.6 C 9.7 km/h
510 29-06-2019 18:25:00 35.4 C 9.28 g/m*3 35.4 C 11.3 km/h
511 29-06-2019 18:30:00 35.3 C 8.83 g/m*3 35.3 C 9.7 km/h
512 29-06-2019 18:35:00 35.2 C 8.79 g/m*3 35.2 C 9.7 km/h
513 29-06-2019 18:40:00 35.3 C 9.64 g/m*3 35.3 C 8.1 km/h
514 29-06-2019 18:45:00 35.4 C 8.88 g/m*3 35.4 C 6.4 km/h
515 29-06-2019 18:50:00 35.6 C 9.79 g/m*3 35.6 C 1.6 km/h
516 29-06-2019 18:55:00 35.8 C 10.3 g/m*3 35.8 C 4.8 km/h
517 29-06-2019 19:00:00 36 C 9.16 g/m*3 36 C 6.4 km/h
518 29-06-2019 19:05:00 36.1 C 9.21 g/m*3 36.1 C 4.8 km/h
519 29-06-2019 19:10:00 36 C 9.16 g/m*3 36 C 4.8 km/h
520 29-06-2019 19:15:00 35.9 C 9.11 g/m*3 35.9 C 4.8 km/h
521 29-06-2019 19:20:00 35.8 C 9.07 g/m*3 35.8 C 6.4 km/h
522 29-06-2019 19:25:00 35.4 C 9.28 g/m*3 35.4 C 4.8 km/h
523 29-06-2019 19:30:00 35 C 9.49 g/m*3 35 C 4.8 km/h
524 29-06-2019 19:35:00 34.8 C 9.39 g/m*3 34.8 C 3.2 km/h
525 29-06-2019 19:40:00 34.8 C 9.78 g/m*3 34.8 C 1.6 km/h
Sensor: Nr:Datum:Temp:Abs-Feuchte:Windchill:Wind:
Aussen-T/F 526 29-06-2019 19:45:00 34.7 C 9.73 g/m*3 34.7 C 3.2 km/h
527 29-06-2019 19:50:00 34.5 C 9.63 g/m*3 34.5 C 4.8 km/h
528 29-06-2019 19:55:00 34.2 C 9.48 g/m*3 34.2 C 6.4 km/h
529 29-06-2019 20:00:00 33.8 C 11.14 g/m*3 33.8 C 4.8 km/h
530 29-06-2019 20:05:00 33.7 C 11.08 g/m*3 33.7 C 1.6 km/h
531 29-06-2019 20:10:00 33.7 C 11.45 g/m*3 33.7 C 1.6 km/h
532 29-06-2019 20:15:00 33.6 C 11.76 g/m*3 33.6 C 1.6 km/h
533 29-06-2019 20:20:00 33.4 C 11.63 g/m*3 33.4 C 0 km/h
534 29-06-2019 20:25:00 33.1 C 13.96 g/m*3 33.1 C 1.6 km/h
535 29-06-2019 20:30:00 32.6 C 12.2 g/m*3 32.6 C 0 km/h
536 29-06-2019 20:35:00 31.9 C 11.75 g/m*3 31.9 C 0 km/h
537 29-06-2019 20:40:00 31.4 C 11.77 g/m*3 31.4 C 1.6 km/h
538 29-06-2019 20:45:00 31 C 11.2 g/m*3 31 C 0 km/h
539 29-06-2019 20:50:00 30.6 C 11.28 g/m*3 30.6 C 0 km/h
540 29-06-2019 20:55:00 30.3 C 11.71 g/m*3 30.3 C 0 km/h
541 29-06-2019 21:00:00 29.9 C 11.46 g/m*3 29.9 C 1.6 km/h
542 29-06-2019 21:05:00 29.5 C 11.22 g/m*3 29.5 C 1.6 km/h
543 29-06-2019 21:10:00 29.1 C 10.97 g/m*3 29.1 C 0 km/h
544 29-06-2019 21:15:00 28.7 C 11.02 g/m*3 28.7 C 1.6 km/h
545 29-06-2019 21:20:00 28.2 C 11 g/m*3 28.2 C 1.6 km/h
546 29-06-2019 21:25:00 27.7 C 10.7 g/m*3 27.7 C 1.6 km/h
547 29-06-2019 21:30:00 27.3 C 10.73 g/m*3 27.3 C 1.6 km/h
548 29-06-2019 21:35:00 26.8 C 10.44 g/m*3 26.8 C 1.6 km/h
549 29-06-2019 21:40:00 26.4 C 10.21 g/m*3 26.4 C 1.6 km/h
550 29-06-2019 21:45:00 26.2 C 10.09 g/m*3 26.2 C 1.6 km/h
Sensor: Nr:Datum:Temp:Abs-Feuchte:Windchill:Wind:
Aussen-T/F 551 29-06-2019 21:50:00 25.9 C 10.17 g/m*3 25.9 C 1.6 km/h
552 29-06-2019 21:55:00 25.6 C 10 g/m*3 25.6 C 3.2 km/h
553 29-06-2019 22:00:00 25.3 C 10.07 g/m*3 25.3 C 1.6 km/h
554 29-06-2019 22:05:00 25.1 C 9.72 g/m*3 25.1 C 1.6 km/h
555 29-06-2019 22:10:00 24.8 C 9.79 g/m*3 24.8 C 3.2 km/h
556 29-06-2019 22:15:00 24.7 C 9.96 g/m*3 24.7 C 1.6 km/h
557 29-06-2019 22:20:00 24.4 C 9.57 g/m*3 24.4 C 1.6 km/h
558 29-06-2019 22:25:00 24.3 C 9.74 g/m*3 24.3 C 1.6 km/h
559 29-06-2019 22:30:00 24.1 C 9.63 g/m*3 24.1 C 1.6 km/h
560 29-06-2019 22:35:00 24 C 10.01 g/m*3 24 C 1.6 km/h
561 29-06-2019 22:40:00 23.8 C 10.11 g/m*3 23.8 C 0 km/h
562 29-06-2019 22:45:00 23.7 C 10.27 g/m*3 23.7 C 0 km/h
563 29-06-2019 22:50:00 23.4 C 10.51 g/m*3 23.4 C 0 km/h
564 29-06-2019 22:55:00 23.1 C 10.54 g/m*3 23.1 C 0 km/h
565 29-06-2019 23:00:00 22.7 C 10.51 g/m*3 22.7 C 0 km/h
566 29-06-2019 23:05:00 22.4 C 10.72 g/m*3 22.4 C 0 km/h
567 29-06-2019 23:10:00 22.1 C 10.54 g/m*3 22.1 C 0 km/h
568 29-06-2019 23:15:00 21.8 C 10.55 g/m*3 21.8 C 0 km/h
569 29-06-2019 23:20:00 21.6 C 10.81 g/m*3 21.6 C 0 km/h
570 29-06-2019 23:25:00 21.3 C 10.62 g/m*3 21.3 C 0 km/h
571 29-06-2019 23:30:00 21.1 C 10.87 g/m*3 21.1 C 0 km/h
572 29-06-2019 23:35:00 20.7 C 10.62 g/m*3 20.7 C 0 km/h
573 29-06-2019 23:40:00 20.5 C 10.68 g/m*3 20.5 C 0 km/h
574 29-06-2019 23:45:00 20.3 C 10.73 g/m*3 20.3 C 0 km/h
575 29-06-2019 23:50:00 20.2 C 10.49 g/m*3 20.2 C 0 km/h
Sensor: Nr:Datum:Temp:Abs-Feuchte:Windchill:Wind:
Aussen-T/F 576 29-06-2019 23:55:00 20.1 C 10.6 g/m*3 20.1 C 0 km/h
577 30-06-2019 00:00:00 20 C 10.71 g/m*3 20 C 0 km/h
578 30-06-2019 00:05:00 19.8 C 10.76 g/m*3 19.8 C 0 km/h
579 30-06-2019 00:10:00 19.6 C 10.64 g/m*3 19.6 C 0 km/h
580 30-06-2019 00:15:00 19.3 C 10.62 g/m*3 19.3 C 0 km/h
581 30-06-2019 00:20:00 19.2 C 10.72 g/m*3 19.2 C 0 km/h
582 30-06-2019 00:25:00 18.9 C 10.69 g/m*3 18.9 C 0 km/h
583 30-06-2019 00:30:00 18.8 C 10.79 g/m*3 18.8 C 0 km/h
584 30-06-2019 00:35:00 18.6 C 10.66 g/m*3 18.6 C 0 km/h
585 30-06-2019 00:40:00 18.4 C 10.7 g/m*3 18.4 C 0 km/h
586 30-06-2019 00:45:00 18.3 C 10.63 g/m*3 18.3 C 0 km/h
587 30-06-2019 00:50:00 18.2 C 10.57 g/m*3 18.2 C 0 km/h
588 30-06-2019 00:55:00 18.1 C 10.66 g/m*3 18.1 C 0 km/h
589 30-06-2019 01:00:00 18 C 10.6 g/m*3 18 C 0 km/h
590 30-06-2019 01:05:00 18 C 10.75 g/m*3 18 C 0 km/h
591 30-06-2019 01:10:00 17.9 C 10.84 g/m*3 17.9 C 0 km/h
592 30-06-2019 01:15:00 17.8 C 10.93 g/m*3 17.8 C 0 km/h
593 30-06-2019 01:20:00 17.7 C 10.86 g/m*3 17.7 C 0 km/h
594 30-06-2019 01:25:00 17.6 C 10.95 g/m*3 17.6 C 0 km/h
595 30-06-2019 01:30:00 17.4 C 10.82 g/m*3 17.4 C 0 km/h
596 30-06-2019 01:35:00 17.3 C 10.75 g/m*3 17.3 C 0 km/h
597 30-06-2019 01:40:00 17.2 C 10.69 g/m*3 17.2 C 0 km/h
598 30-06-2019 01:45:00 17.2 C 10.69 g/m*3 17.2 C 0 km/h
599 30-06-2019 01:50:00 17.1 C 10.63 g/m*3 17.1 C 0 km/h
600 30-06-2019 01:55:00 17.1 C 10.77 g/m*3 17.1 C 0 km/h
Sensor: Nr:Datum:Temp:Abs-Feuchte:Windchill:Wind:
Aussen-T/F 601 30-06-2019 02:00:00 17 C 10.71 g/m*3 17 C 0 km/h
602 30-06-2019 02:05:00 16.9 C 10.64 g/m*3 16.9 C 0 km/h
603 30-06-2019 02:10:00 16.9 C 10.64 g/m*3 16.9 C 0 km/h
604 30-06-2019 02:15:00 16.9 C 10.79 g/m*3 16.9 C 0 km/h
605 30-06-2019 02:20:00 16.9 C 10.79 g/m*3 16.9 C 0 km/h
606 30-06-2019 02:25:00 16.8 C 10.72 g/m*3 16.8 C 0 km/h
607 30-06-2019 02:30:00 16.7 C 10.8 g/m*3 16.7 C 0 km/h
608 30-06-2019 02:35:00 16.7 C 10.8 g/m*3 16.7 C 0 km/h
609 30-06-2019 02:40:00 16.6 C 10.88 g/m*3 16.6 C 0 km/h
610 30-06-2019 02:45:00 16.6 C 10.88 g/m*3 16.6 C 0 km/h
611 30-06-2019 02:50:00 16.5 C 10.81 g/m*3 16.5 C 0 km/h
612 30-06-2019 02:55:00 16.5 C 10.81 g/m*3 16.5 C 0 km/h
613 30-06-2019 03:00:00 16.4 C 10.89 g/m*3 16.4 C 0 km/h
614 30-06-2019 03:05:00 16.3 C 10.82 g/m*3 16.3 C 0 km/h
615 30-06-2019 03:10:00 16.3 C 10.82 g/m*3 16.3 C 0 km/h
616 30-06-2019 03:15:00 16.2 C 10.76 g/m*3 16.2 C 0 km/h
617 30-06-2019 03:20:00 16.2 C 10.76 g/m*3 16.2 C 0 km/h
618 30-06-2019 03:25:00 16.2 C 10.89 g/m*3 16.2 C 0 km/h
619 30-06-2019 03:30:00 16.1 C 10.83 g/m*3 16.1 C 0 km/h
620 30-06-2019 03:35:00 16.1 C 10.83 g/m*3 16.1 C 0 km/h
621 30-06-2019 03:40:00 16 C 10.76 g/m*3 16 C 0 km/h
622 30-06-2019 03:45:00 15.9 C 10.7 g/m*3 15.9 C 0 km/h
623 30-06-2019 03:50:00 15.8 C 10.77 g/m*3 15.8 C 0 km/h
624 30-06-2019 03:55:00 15.8 C 10.77 g/m*3 15.8 C 0 km/h
625 30-06-2019 04:00:00 15.8 C 10.77 g/m*3 15.8 C 0 km/h
Sensor: Nr:Datum:Temp:Abs-Feuchte:Windchill:Wind:
Aussen-T/F 626 30-06-2019 04:05:00 15.8 C 10.77 g/m*3 15.8 C 0 km/h
627 30-06-2019 04:10:00 15.7 C 10.7 g/m*3 15.7 C 0 km/h
628 30-06-2019 04:15:00 15.7 C 10.84 g/m*3 15.7 C 1.6 km/h
629 30-06-2019 04:20:00 15.7 C 10.97 g/m*3 15.7 C 1.6 km/h
630 30-06-2019 04:25:00 15.7 C 10.97 g/m*3 15.7 C 0 km/h
631 30-06-2019 04:30:00 15.6 C 10.77 g/m*3 15.6 C 0 km/h
632 30-06-2019 04:35:00 15.5 C 10.84 g/m*3 15.5 C 0 km/h
633 30-06-2019 04:40:00 15.4 C 10.77 g/m*3 15.4 C 0 km/h
634 30-06-2019 04:45:00 15.4 C 10.77 g/m*3 15.4 C 0 km/h
635 30-06-2019 04:50:00 15.4 C 10.77 g/m*3 15.4 C 0 km/h
636 30-06-2019 04:55:00 15.3 C 10.71 g/m*3 15.3 C 0 km/h
637 30-06-2019 05:00:00 15.3 C 10.71 g/m*3 15.3 C 0 km/h
638 30-06-2019 05:05:00 15.2 C 10.64 g/m*3 15.2 C 0 km/h
639 30-06-2019 05:10:00 15.2 C 10.77 g/m*3 15.2 C 0 km/h
640 30-06-2019 05:15:00 15.1 C 10.71 g/m*3 15.1 C 0 km/h
641 30-06-2019 05:20:00 15.1 C 10.71 g/m*3 15.1 C 0 km/h
642 30-06-2019 05:25:00 15.1 C 10.84 g/m*3 15.1 C 0 km/h
643 30-06-2019 05:30:00 15.1 C 10.84 g/m*3 15.1 C 0 km/h
644 30-06-2019 05:35:00 15 C 10.77 g/m*3 15 C 0 km/h
645 30-06-2019 05:40:00 15 C 10.77 g/m*3 15 C 0 km/h
646 30-06-2019 05:45:00 14.9 C 10.71 g/m*3 14.9 C 0 km/h
647 30-06-2019 05:50:00 14.8 C 10.77 g/m*3 14.8 C 0 km/h
648 30-06-2019 05:55:00 14.8 C 10.77 g/m*3 14.8 C 0 km/h
649 30-06-2019 06:00:00 14.8 C 10.89 g/m*3 14.8 C 0 km/h
650 30-06-2019 06:05:00 14.8 C 10.89 g/m*3 14.8 C 0 km/h
Sensor: Nr:Datum:Temp:Abs-Feuchte:Windchill:Wind:
Aussen-T/F 651 30-06-2019 06:10:00 14.8 C 10.89 g/m*3 14.8 C 0 km/h
652 30-06-2019 06:15:00 14.8 C 10.89 g/m*3 14.8 C 0 km/h
653 30-06-2019 06:20:00 14.8 C 10.89 g/m*3 14.8 C 0 km/h
654 30-06-2019 06:25:00 14.8 C 10.89 g/m*3 14.8 C 0 km/h
655 30-06-2019 06:30:00 14.8 C 11.02 g/m*3 14.8 C 0 km/h
656 30-06-2019 06:35:00 14.9 C 11.09 g/m*3 14.9 C 0 km/h
657 30-06-2019 06:40:00 14.9 C 11.09 g/m*3 14.9 C 0 km/h
658 30-06-2019 06:45:00 14.9 C 11.09 g/m*3 14.9 C 0 km/h
659 30-06-2019 06:50:00 14.9 C 11.09 g/m*3 14.9 C 0 km/h
660 30-06-2019 06:55:00 15 C 11.16 g/m*3 15 C 0 km/h
661 30-06-2019 07:00:00 15 C 11.16 g/m*3 15 C 0 km/h
662 30-06-2019 07:05:00 15.1 C 11.22 g/m*3 15.1 C 0 km/h
663 30-06-2019 07:10:00 15.1 C 11.35 g/m*3 15.1 C 0 km/h
664 30-06-2019 07:15:00 15.2 C 11.42 g/m*3 15.2 C 0 km/h
665 30-06-2019 07:20:00 15.3 C 11.49 g/m*3 15.3 C 1.6 km/h
666 30-06-2019 07:25:00 15.4 C 11.56 g/m*3 15.4 C 0 km/h
667 30-06-2019 07:30:00 15.5 C 11.63 g/m*3 15.5 C 0 km/h
668 30-06-2019 07:35:00 15.6 C 11.7 g/m*3 15.6 C 0 km/h
669 30-06-2019 07:40:00 15.7 C 11.77 g/m*3 15.7 C 0 km/h
670 30-06-2019 07:45:00 15.7 C 11.77 g/m*3 15.7 C 0 km/h
671 30-06-2019 07:50:00 15.8 C 11.85 g/m*3 15.8 C 0 km/h
672 30-06-2019 07:55:00 15.9 C 11.92 g/m*3 15.9 C 0 km/h
673 30-06-2019 08:00:00 16.1 C 12.06 g/m*3 16.1 C 0 km/h
674 30-06-2019 08:05:00 16.3 C 12.21 g/m*3 16.3 C 0 km/h
675 30-06-2019 08:10:00 16.4 C 12.14 g/m*3 16.4 C 0 km/h
Sensor: Nr:Datum:Temp:Abs-Feuchte:Windchill:Wind:
Aussen-T/F 676 30-06-2019 08:15:00 16.6 C 12.29 g/m*3 16.6 C 0 km/h
677 30-06-2019 08:20:00 16.7 C 12.36 g/m*3 16.7 C 0 km/h
678 30-06-2019 08:25:00 16.8 C 12.3 g/m*3 16.8 C 0 km/h
679 30-06-2019 08:30:00 17.1 C 12.66 g/m*3 17.1 C 0 km/h
680 30-06-2019 08:35:00 17.2 C 12.59 g/m*3 17.2 C 0 km/h
681 30-06-2019 08:40:00 17.4 C 12.75 g/m*3 17.4 C 0 km/h
682 30-06-2019 08:45:00 17.7 C 12.82 g/m*3 17.7 C 0 km/h
683 30-06-2019 08:50:00 17.9 C 12.98 g/m*3 17.9 C 0 km/h
684 30-06-2019 08:55:00 18.1 C 13.13 g/m*3 18.1 C 0 km/h
685 30-06-2019 09:00:00 18.3 C 13.29 g/m*3 18.3 C 0 km/h
686 30-06-2019 09:05:00 18.4 C 13.37 g/m*3 18.4 C 0 km/h
687 30-06-2019 09:10:00 18.7 C 13.45 g/m*3 18.7 C 0 km/h
688 30-06-2019 09:15:00 18.9 C 13.61 g/m*3 18.9 C 0 km/h
689 30-06-2019 09:20:00 19.1 C 13.77 g/m*3 19.1 C 0 km/h
690 30-06-2019 09:25:00 19.3 C 13.77 g/m*3 19.3 C 0 km/h
691 30-06-2019 09:30:00 19.6 C 13.84 g/m*3 19.6 C 0 km/h
692 30-06-2019 09:35:00 19.9 C 13.74 g/m*3 19.9 C 0 km/h
693 30-06-2019 09:40:00 20.3 C 13.89 g/m*3 20.3 C 0 km/h
694 30-06-2019 09:45:00 20.7 C 14.04 g/m*3 20.7 C 0 km/h
695 30-06-2019 09:50:00 21.2 C 14.46 g/m*3 21.2 C 0 km/h
696 30-06-2019 09:55:00 21.5 C 14.52 g/m*3 21.5 C 0 km/h
697 30-06-2019 10:00:00 21.9 C 14.47 g/m*3 21.9 C 0 km/h
698 30-06-2019 10:05:00 22.3 C 14.61 g/m*3 22.3 C 0 km/h
699 30-06-2019 10:10:00 22.7 C 14.75 g/m*3 22.7 C 0 km/h
700 30-06-2019 10:15:00 23.1 C 15.5 g/m*3 23.1 C 0 km/h
Sensor: Nr:Datum:Temp:Abs-Feuchte:Windchill:Wind:
Aussen-T/F 701 30-06-2019 10:20:00 23.5 C 15.44 g/m*3 23.5 C 1.6 km/h
702 30-06-2019 10:25:00 24.3 C 15.05 g/m*3 24.3 C 6.4 km/h
703 30-06-2019 10:30:00 25.3 C 15.22 g/m*3 25.3 C 3.2 km/h
704 30-06-2019 10:35:00 26.2 C 15.26 g/m*3 26.2 C 8.1 km/h
705 30-06-2019 10:40:00 27.4 C 15.26 g/m*3 27.4 C 11.3 km/h
706 30-06-2019 10:45:00 28.1 C 14.77 g/m*3 28.1 C 9.7 km/h
707 30-06-2019 10:50:00 28.7 C 14.41 g/m*3 28.7 C 11.3 km/h
708 30-06-2019 10:55:00 29.2 C 14.23 g/m*3 29.2 C 16.1 km/h
709 30-06-2019 11:00:00 29.5 C 14.46 g/m*3 29.5 C 16.1 km/h
710 30-06-2019 11:05:00 29.7 C 14.32 g/m*3 29.7 C 14.5 km/h
711 30-06-2019 11:10:00 29.8 C 14.7 g/m*3 29.8 C 11.3 km/h
712 30-06-2019 11:15:00 30.1 C 14.02 g/m*3 30.1 C 12.9 km/h
713 30-06-2019 11:20:00 30.3 C 14.18 g/m*3 30.3 C 11.3 km/h
714 30-06-2019 11:25:00 30.6 C 14.09 g/m*3 30.6 C 9.7 km/h
715 30-06-2019 11:30:00 30.8 C 13.93 g/m*3 30.8 C 14.5 km/h
716 30-06-2019 11:35:00 31 C 14.08 g/m*3 31 C 16.1 km/h
717 30-06-2019 11:40:00 31.1 C 13.84 g/m*3 31.1 C 11.3 km/h
718 30-06-2019 11:45:00 31.2 C 14.23 g/m*3 31.2 C 12.9 km/h
719 30-06-2019 11:50:00 31.4 C 14.06 g/m*3 31.4 C 11.3 km/h
720 30-06-2019 11:55:00 31.6 C 13.88 g/m*3 31.6 C 11.3 km/h
721 30-06-2019 12:00:00 31.7 C 14.29 g/m*3 31.7 C 9.7 km/h
722 30-06-2019 12:05:00 31.8 C 14.03 g/m*3 31.8 C 8.1 km/h
723 30-06-2019 12:10:00 31.9 C 14.1 g/m*3 31.9 C 9.7 km/h
724 30-06-2019 12:15:00 32.1 C 13.58 g/m*3 32.1 C 8.1 km/h
725 30-06-2019 12:20:00 32.2 C 13.99 g/m*3 32.2 C 6.4 km/h
Sensor: Nr:Datum:Temp:Abs-Feuchte:Windchill:Wind:
Aussen-T/F 726 30-06-2019 12:25:00 32.3 C 14.06 g/m*3 32.3 C 9.7 km/h
727 30-06-2019 12:30:00 32.4 C 13.45 g/m*3 32.4 C 8.1 km/h
728 30-06-2019 12:35:00 32.7 C 13.66 g/m*3 32.7 C 9.7 km/h
729 30-06-2019 12:40:00 32.9 C 13.81 g/m*3 32.9 C 6.4 km/h
730 30-06-2019 12:45:00 33.1 C 13.96 g/m*3 33.1 C 8.1 km/h
731 30-06-2019 12:50:00 33.3 C 13.74 g/m*3 33.3 C 9.7 km/h
732 30-06-2019 12:55:00 33.4 C 13.45 g/m*3 33.4 C 9.7 km/h
733 30-06-2019 13:00:00 33.8 C 13.37 g/m*3 33.8 C 9.7 km/h
734 30-06-2019 13:05:00 33.9 C 14.18 g/m*3 33.9 C 9.7 km/h
735 30-06-2019 13:10:00 34 C 13.88 g/m*3 34 C 8.1 km/h
736 30-06-2019 13:15:00 34.1 C 13.2 g/m*3 34.1 C 11.3 km/h
737 30-06-2019 13:20:00 34.3 C 13.34 g/m*3 34.3 C 8.1 km/h
738 30-06-2019 13:25:00 34.6 C 13.55 g/m*3 34.6 C 16.1 km/h
739 30-06-2019 13:30:00 34.8 C 13.69 g/m*3 34.8 C 12.9 km/h
740 30-06-2019 13:35:00 35 C 13.05 g/m*3 35 C 11.3 km/h
741 30-06-2019 13:40:00 35.1 C 13.51 g/m*3 35.1 C 14.5 km/h
742 30-06-2019 13:45:00 35.1 C 13.91 g/m*3 35.1 C 12.9 km/h
743 30-06-2019 13:50:00 35.2 C 13.58 g/m*3 35.2 C 12.9 km/h
744 30-06-2019 13:55:00 35.3 C 13.25 g/m*3 35.3 C 12.9 km/h
745 30-06-2019 14:00:00 35.4 C 13.72 g/m*3 35.4 C 12.9 km/h
746 30-06-2019 14:05:00 35.7 C 13.12 g/m*3 35.7 C 12.9 km/h
747 30-06-2019 14:10:00 35.8 C 13.6 g/m*3 35.8 C 14.5 km/h
748 30-06-2019 14:15:00 35.8 C 14.01 g/m*3 35.8 C 11.3 km/h
749 30-06-2019 14:20:00 35.8 C 14.01 g/m*3 35.8 C 9.7 km/h
750 30-06-2019 14:25:00 35.8 C 14.42 g/m*3 35.8 C 20.9 km/h
Sensor: Nr:Datum:Temp:Abs-Feuchte:Windchill:Wind:
Aussen-T/F 751 30-06-2019 14:30:00 36 C 14.57 g/m*3 36 C 19.3 km/h
752 30-06-2019 14:35:00 36.3 C 14.38 g/m*3 36.3 C 14.5 km/h
753 30-06-2019 14:40:00 36.4 C 14.45 g/m*3 36.4 C 22.5 km/h
754 30-06-2019 14:45:00 36.6 C 14.6 g/m*3 36.6 C 14.5 km/h
755 30-06-2019 14:50:00 36.4 C 15.3 g/m*3 36.4 C 12.9 km/h
756 30-06-2019 14:55:00 36.1 C 15.48 g/m*3 36.1 C 14.5 km/h
757 30-06-2019 15:00:00 35.8 C 14.83 g/m*3 35.8 C 16.1 km/h
758 30-06-2019 15:05:00 35.6 C 15.91 g/m*3 35.6 C 14.5 km/h
759 30-06-2019 15:10:00 35.4 C 15.34 g/m*3 35.4 C 16.1 km/h
760 30-06-2019 15:15:00 35.3 C 16.46 g/m*3 35.3 C 12.9 km/h
761 30-06-2019 15:20:00 35.4 C 16.14 g/m*3 35.4 C 14.5 km/h
762 30-06-2019 15:25:00 35.4 C 16.95 g/m*3 35.4 C 12.9 km/h
763 30-06-2019 15:30:00 35.3 C 16.46 g/m*3 35.3 C 16.1 km/h
764 30-06-2019 15:35:00 35.3 C 17.27 g/m*3 35.3 C 12.9 km/h
765 30-06-2019 15:40:00 35.5 C 17.45 g/m*3 35.5 C 16.1 km/h
766 30-06-2019 15:45:00 35.6 C 17.13 g/m*3 35.6 C 20.9 km/h
767 30-06-2019 15:50:00 35.7 C 16.81 g/m*3 35.7 C 12.9 km/h
768 30-06-2019 15:55:00 35.7 C 17.63 g/m*3 35.7 C 12.9 km/h
769 30-06-2019 16:00:00 35.7 C 17.63 g/m*3 35.7 C 14.5 km/h
770 30-06-2019 16:05:00 35.3 C 17.27 g/m*3 35.3 C 14.5 km/h
771 30-06-2019 16:10:00 35.2 C 17.98 g/m*3 35.2 C 9.7 km/h
772 30-06-2019 16:15:00 35.3 C 18.47 g/m*3 35.3 C 12.9 km/h
773 30-06-2019 16:20:00 35.1 C 18.28 g/m*3 35.1 C 17.7 km/h
774 30-06-2019 16:25:00 35 C 18.18 g/m*3 35 C 11.3 km/h
775 30-06-2019 16:30:00 35.2 C 17.98 g/m*3 35.2 C 6.4 km/h
Sensor: Nr:Datum:Temp:Abs-Feuchte:Windchill:Wind:
Aussen-T/F 776 30-06-2019 16:35:00 35.6 C 18.76 g/m*3 35.6 C 6.4 km/h
777 30-06-2019 16:40:00 35.9 C 18.64 g/m*3 35.9 C 8.1 km/h
778 30-06-2019 16:45:00 35.9 C 18.64 g/m*3 35.9 C 11.3 km/h
779 30-06-2019 16:50:00 35.8 C 18.54 g/m*3 35.8 C 8.1 km/h
780 30-06-2019 16:55:00 35.9 C 18.64 g/m*3 35.9 C 8.1 km/h
781 30-06-2019 17:00:00 35.9 C 19.05 g/m*3 35.9 C 8.1 km/h
782 30-06-2019 17:05:00 35.9 C 17.81 g/m*3 35.9 C 9.7 km/h
783 30-06-2019 17:10:00 35.9 C 18.64 g/m*3 35.9 C 8.1 km/h
784 30-06-2019 17:15:00 35.9 C 18.64 g/m*3 35.9 C 11.3 km/h
785 30-06-2019 17:20:00 35.7 C 18.86 g/m*3 35.7 C 9.7 km/h
786 30-06-2019 17:25:00 35.7 C 18.86 g/m*3 35.7 C 4.8 km/h
787 30-06-2019 17:30:00 35.9 C 19.05 g/m*3 35.9 C 6.4 km/h
788 30-06-2019 17:35:00 35.9 C 19.05 g/m*3 35.9 C 9.7 km/h
789 30-06-2019 17:40:00 35.8 C 18.96 g/m*3 35.8 C 6.4 km/h
790 30-06-2019 17:45:00 35.9 C 19.05 g/m*3 35.9 C 8.1 km/h
791 30-06-2019 17:50:00 35.9 C 19.05 g/m*3 35.9 C 9.7 km/h
792 30-06-2019 17:55:00 36.1 C 19.25 g/m*3 36.1 C 8.1 km/h
793 30-06-2019 18:00:00 35.9 C 19.05 g/m*3 35.9 C 9.7 km/h
794 30-06-2019 18:05:00 35.8 C 18.54 g/m*3 35.8 C 12.9 km/h
795 30-06-2019 18:10:00 35.6 C 18.35 g/m*3 35.6 C 9.7 km/h
796 30-06-2019 18:15:00 35.5 C 18.26 g/m*3 35.5 C 8.1 km/h
797 30-06-2019 18:20:00 35.3 C 18.07 g/m*3 35.3 C 8.1 km/h
798 30-06-2019 18:25:00 35.1 C 18.68 g/m*3 35.1 C 9.7 km/h
799 30-06-2019 18:30:00 34.8 C 18.39 g/m*3 34.8 C 8.1 km/h
800 30-06-2019 18:35:00 34.7 C 18.29 g/m*3 34.7 C 8.1 km/h
Sensor: Nr:Datum:Temp:Abs-Feuchte:Windchill:Wind:
Aussen-T/F 801 30-06-2019 18:40:00 34.4 C 18.39 g/m*3 34.4 C 11.3 km/h
802 30-06-2019 18:45:00 34.3 C 17.91 g/m*3 34.3 C 11.3 km/h
803 30-06-2019 18:50:00 34.2 C 17.82 g/m*3 34.2 C 11.3 km/h
804 30-06-2019 18:55:00 34.1 C 17.73 g/m*3 34.1 C 14.5 km/h
805 30-06-2019 19:00:00 33.9 C 17.92 g/m*3 33.9 C 8.1 km/h
806 30-06-2019 19:05:00 33.9 C 17.92 g/m*3 33.9 C 6.4 km/h
807 30-06-2019 19:10:00 33.7 C 17.73 g/m*3 33.7 C 9.7 km/h
808 30-06-2019 19:15:00 33.4 C 17.45 g/m*3 33.4 C 11.3 km/h
809 30-06-2019 19:20:00 32.9 C 17.7 g/m*3 32.9 C 14.5 km/h
810 30-06-2019 19:25:00 32.4 C 17.59 g/m*3 32.4 C 17.7 km/h
811 30-06-2019 19:30:00 32.4 C 18.28 g/m*3 32.4 C 6.4 km/h
812 30-06-2019 19:35:00 32.4 C 17.59 g/m*3 32.4 C 12.9 km/h
813 30-06-2019 19:40:00 32.3 C 17.84 g/m*3 32.3 C 9.7 km/h
814 30-06-2019 19:45:00 31.9 C 17.46 g/m*3 31.9 C 11.3 km/h
815 30-06-2019 19:50:00 31.6 C 17.51 g/m*3 31.6 C 9.7 km/h
816 30-06-2019 19:55:00 31.1 C 17.37 g/m*3 31.1 C 14.5 km/h
817 30-06-2019 20:00:00 30.8 C 17.41 g/m*3 30.8 C 16.1 km/h
818 30-06-2019 20:05:00 30.5 C 17.45 g/m*3 30.5 C 9.7 km/h
819 30-06-2019 20:10:00 30.3 C 17.57 g/m*3 30.3 C 16.1 km/h
820 30-06-2019 20:15:00 30 C 17.59 g/m*3 30 C 17.7 km/h
821 30-06-2019 20:20:00 29.6 C 17.51 g/m*3 29.6 C 14.5 km/h
822 30-06-2019 20:25:00 29.3 C 17.23 g/m*3 29.3 C 12.9 km/h
823 30-06-2019 20:30:00 29.1 C 17.62 g/m*3 29.1 C 12.9 km/h
824 30-06-2019 20:35:00 28.9 C 17.14 g/m*3 28.9 C 8.1 km/h
825 30-06-2019 20:40:00 28.7 C 16.95 g/m*3 28.7 C 17.7 km/h
Sensor: Nr:Datum:Temp:Abs-Feuchte:Windchill:Wind:
Aussen-T/F 826 30-06-2019 20:45:00 28.6 C 16.86 g/m*3 28.6 C 11.3 km/h
827 30-06-2019 20:50:00 28.3 C 16.59 g/m*3 28.3 C 12.9 km/h
828 30-06-2019 20:55:00 28.1 C 16.68 g/m*3 28.1 C 11.3 km/h
829 30-06-2019 21:00:00 27.9 C 16.5 g/m*3 27.9 C 12.9 km/h
830 30-06-2019 21:05:00 27.7 C 16.32 g/m*3 27.7 C 12.9 km/h
831 30-06-2019 21:10:00 27.5 C 16.4 g/m*3 27.5 C 12.9 km/h
832 30-06-2019 21:15:00 27.4 C 16.31 g/m*3 27.4 C 9.7 km/h
833 30-06-2019 21:20:00 27.3 C 16.22 g/m*3 27.3 C 8.1 km/h
834 30-06-2019 21:25:00 27.2 C 16.13 g/m*3 27.2 C 9.7 km/h
835 30-06-2019 21:30:00 27.1 C 16.04 g/m*3 27.1 C 8.1 km/h
836 30-06-2019 21:35:00 27 C 16.21 g/m*3 27 C 1.6 km/h
837 30-06-2019 21:40:00 26.9 C 16.12 g/m*3 26.9 C 4.8 km/h
838 30-06-2019 21:45:00 26.8 C 16.29 g/m*3 26.8 C 6.4 km/h
839 30-06-2019 21:50:00 26.7 C 16.2 g/m*3 26.7 C 9.7 km/h
840 30-06-2019 21:55:00 26.7 C 16.2 g/m*3 26.7 C 6.4 km/h
841 30-06-2019 22:00:00 26.7 C 16.2 g/m*3 26.7 C 11.3 km/h
842 30-06-2019 22:05:00 26.6 C 16.11 g/m*3 26.6 C 11.3 km/h
843 30-06-2019 22:10:00 26.6 C 16.11 g/m*3 26.6 C 6.4 km/h
844 30-06-2019 22:15:00 26.5 C 15.77 g/m*3 26.5 C 9.7 km/h
845 30-06-2019 22:20:00 26.4 C 15.93 g/m*3 26.4 C 8.1 km/h
846 30-06-2019 22:25:00 26.3 C 15.84 g/m*3 26.3 C 6.4 km/h
847 30-06-2019 22:30:00 26.3 C 15.6 g/m*3 26.3 C 8.1 km/h
848 30-06-2019 22:35:00 26.2 C 15.51 g/m*3 26.2 C 4.8 km/h
849 30-06-2019 22:40:00 26.1 C 15.67 g/m*3 26.1 C 4.8 km/h
850 30-06-2019 22:45:00 25.9 C 15.25 g/m*3 25.9 C 4.8 km/h
Sensor: Nr:Datum:Temp:Abs-Feuchte:Windchill:Wind:
Aussen-T/F 851 30-06-2019 22:50:00 25.8 C 15.41 g/m*3 25.8 C 3.2 km/h
852 30-06-2019 22:55:00 25.7 C 15.32 g/m*3 25.7 C 6.4 km/h
853 30-06-2019 23:00:00 25.6 C 15.47 g/m*3 25.6 C 1.6 km/h
854 30-06-2019 23:05:00 25.4 C 15.07 g/m*3 25.4 C 4.8 km/h
855 30-06-2019 23:10:00 25.3 C 14.98 g/m*3 25.3 C 3.2 km/h
856 30-06-2019 23:15:00 25.2 C 15.13 g/m*3 25.2 C 4.8 km/h
857 30-06-2019 23:20:00 25 C 14.96 g/m*3 25 C 4.8 km/h
858 30-06-2019 23:25:00 24.8 C 15.02 g/m*3 24.8 C 1.6 km/h
859 30-06-2019 23:30:00 24.5 C 15.22 g/m*3 24.5 C 0 km/h
860 30-06-2019 23:35:00 24.2 C 14.96 g/m*3 24.2 C 0 km/h
861 30-06-2019 23:40:00 23.9 C 14.93 g/m*3 23.9 C 1.6 km/h
862 30-06-2019 23:45:00 23.8 C 14.84 g/m*3 23.8 C 0 km/h
863 30-06-2019 23:50:00 23.6 C 14.89 g/m*3 23.6 C 4.8 km/h
864 30-06-2019 23:55:00 23.4 C 14.93 g/m*3 23.4 C 4.8 km/h

Legende:
   Min
   Max


Maximal/Minimal-Werte vom 28.06.2019 - 30.06.2019

Sensor Min Max Avg
Temp
(Aussen-T/F)
13.3 °C
28-06-2019  05:45:00
36.6 °C
30-06-2019  14:45:00
23.65 °C
Abs-Feuchte
(Aussen-T/F)
8.09 g/m*3
29-06-2019  17:05:00
19.25 g/m*3
30-06-2019  17:55:00
11.67 g/m*3
Windchill
(Aussen-T/F)
13.3 C
28-06-2019  05:45:00
36.6 C
30-06-2019  14:45:00
23.63 C

Die Daten stammen von einer Davis Vantage Pro 2 Wetter-Station und werden unter Linux mit der Software wview2wettercgi und aufbereitet. Alle Angaben erfolgen ohne Gewähr für ihre Vollständigkeit oder Richtigkeit.
Kontakt: Rainer Krienke krienke@uni-koblenz.de . Meine Webseiten an der Uni Koblenz oder privat.
Version: $Revision: 0.78 $